sensor_id;sensor_type;location;lat;lon;timestamp;P1;durP1;ratioP1;P2;durP2;ratioP2
36475;SDS011;56615;42.682;23.364;2023-07-31T00:01:18;3.53;;;2.45;;
36475;SDS011;56615;42.682;23.364;2023-07-31T00:03:51;3.97;;;2.70;;
36475;SDS011;56615;42.682;23.364;2023-07-31T00:06:19;5.15;;;2.72;;
36475;SDS011;56615;42.682;23.364;2023-07-31T00:08:54;4.38;;;2.90;;
36475;SDS011;56615;42.682;23.364;2023-07-31T00:11:24;4.80;;;2.97;;
36475;SDS011;56615;42.682;23.364;2023-07-31T00:14:04;5.80;;;2.87;;
36475;SDS011;56615;42.682;23.364;2023-07-31T00:16:48;4.35;;;2.63;;
36475;SDS011;56615;42.682;23.364;2023-07-31T00:19:21;5.95;;;3.13;;
36475;SDS011;56615;42.682;23.364;2023-07-31T00:22:17;4.40;;;2.60;;
36475;SDS011;56615;42.682;23.364;2023-07-31T00:24:45;4.45;;;2.88;;
36475;SDS011;56615;42.682;23.364;2023-07-31T00:27:21;3.83;;;2.60;;
36475;SDS011;56615;42.682;23.364;2023-07-31T00:30:03;5.22;;;2.85;;
36475;SDS011;56615;42.682;23.364;2023-07-31T00:32:40;5.53;;;2.63;;
36475;SDS011;56615;42.682;23.364;2023-07-31T00:35:14;4.50;;;3.00;;
36475;SDS011;56615;42.682;23.364;2023-07-31T00:37:48;4.95;;;3.08;;
36475;SDS011;56615;42.682;23.364;2023-07-31T00:40:14;6.10;;;3.10;;
36475;SDS011;56615;42.682;23.364;2023-07-31T00:42:45;4.55;;;2.92;;
36475;SDS011;56615;42.682;23.364;2023-07-31T00:45:13;5.90;;;2.90;;
36475;SDS011;56615;42.682;23.364;2023-07-31T00:47:46;4.82;;;3.08;;
36475;SDS011;56615;42.682;23.364;2023-07-31T00:50:18;5.95;;;3.40;;
36475;SDS011;56615;42.682;23.364;2023-07-31T00:52:46;4.88;;;3.35;;
36475;SDS011;56615;42.682;23.364;2023-07-31T00:55:19;5.50;;;3.53;;
36475;SDS011;56615;42.682;23.364;2023-07-31T00:58:25;5.18;;;3.72;;
36475;SDS011;56615;42.682;23.364;2023-07-31T01:01:00;5.00;;;3.70;;
36475;SDS011;56615;42.682;23.364;2023-07-31T01:03:46;7.68;;;4.57;;
36475;SDS011;56615;42.682;23.364;2023-07-31T01:12:23;9.18;;;5.78;;
36475;SDS011;56615;42.682;23.364;2023-07-31T01:15:03;9.32;;;6.78;;
36475;SDS011;56615;42.682;23.364;2023-07-31T01:17:50;9.48;;;6.60;;
36475;SDS011;56615;42.682;23.364;2023-07-31T01:20:28;8.60;;;6.40;;
36475;SDS011;56615;42.682;23.364;2023-07-31T01:26:30;11.02;;;7.93;;
36475;SDS011;56615;42.682;23.364;2023-07-31T01:29:49;12.70;;;8.35;;
36475;SDS011;56615;42.682;23.364;2023-07-31T01:32:28;12.77;;;8.90;;
36475;SDS011;56615;42.682;23.364;2023-07-31T01:34:59;12.00;;;9.73;;
36475;SDS011;56615;42.682;23.364;2023-07-31T01:37:31;14.73;;;9.50;;
36475;SDS011;56615;42.682;23.364;2023-07-31T01:40:04;13.45;;;10.30;;
36475;SDS011;56615;42.682;23.364;2023-07-31T01:42:40;13.65;;;10.55;;
36475;SDS011;56615;42.682;23.364;2023-07-31T01:45:09;13.93;;;9.88;;
36475;SDS011;56615;42.682;23.364;2023-07-31T01:47:43;13.43;;;10.57;;
36475;SDS011;56615;42.682;23.364;2023-07-31T01:50:18;14.25;;;10.88;;
36475;SDS011;56615;42.682;23.364;2023-07-31T01:52:46;14.93;;;12.27;;
36475;SDS011;56615;42.682;23.364;2023-07-31T01:55:19;15.25;;;12.57;;
36475;SDS011;56615;42.682;23.364;2023-07-31T02:00:53;17.02;;;13.95;;
36475;SDS011;56615;42.682;23.364;2023-07-31T02:03:29;19.52;;;14.27;;
36475;SDS011;56615;42.682;23.364;2023-07-31T02:05:58;16.65;;;14.10;;
36475;SDS011;56615;42.682;23.364;2023-07-31T02:08:29;19.10;;;14.75;;
36475;SDS011;56615;42.682;23.364;2023-07-31T02:10:57;18.35;;;14.77;;
36475;SDS011;56615;42.682;23.364;2023-07-31T02:13:31;17.95;;;14.73;;
36475;SDS011;56615;42.682;23.364;2023-07-31T02:16:02;18.20;;;14.52;;
36475;SDS011;56615;42.682;23.364;2023-07-31T02:18:45;18.05;;;14.13;;
36475;SDS011;56615;42.682;23.364;2023-07-31T02:21:17;18.10;;;15.13;;
36475;SDS011;56615;42.682;23.364;2023-07-31T02:23:46;18.30;;;14.25;;
36475;SDS011;56615;42.682;23.364;2023-07-31T02:26:16;20.02;;;15.00;;
36475;SDS011;56615;42.682;23.364;2023-07-31T02:28:45;19.25;;;14.60;;
36475;SDS011;56615;42.682;23.364;2023-07-31T02:31:11;17.52;;;15.00;;
36475;SDS011;56615;42.682;23.364;2023-07-31T02:33:38;18.60;;;15.75;;
36475;SDS011;56615;42.682;23.364;2023-07-31T02:36:08;19.98;;;15.15;;
36475;SDS011;56615;42.682;23.364;2023-07-31T02:38:36;17.85;;;14.98;;
36475;SDS011;56615;42.682;23.364;2023-07-31T02:41:02;19.73;;;15.95;;
36475;SDS011;56615;42.682;23.364;2023-07-31T02:43:32;18.55;;;15.68;;
36475;SDS011;56615;42.682;23.364;2023-07-31T02:46:03;20.93;;;15.87;;
36475;SDS011;56615;42.682;23.364;2023-07-31T02:48:32;18.70;;;15.02;;
36475;SDS011;56615;42.682;23.364;2023-07-31T02:51:00;19.75;;;16.23;;
36475;SDS011;56615;42.682;23.364;2023-07-31T02:53:26;19.42;;;16.08;;
36475;SDS011;56615;42.682;23.364;2023-07-31T02:55:56;18.67;;;15.05;;
36475;SDS011;56615;42.682;23.364;2023-07-31T02:58:26;18.95;;;16.20;;
36475;SDS011;56615;42.682;23.364;2023-07-31T03:00:53;19.33;;;15.93;;
36475;SDS011;56615;42.682;23.364;2023-07-31T03:03:21;18.98;;;15.77;;
36475;SDS011;56615;42.682;23.364;2023-07-31T03:05:47;21.08;;;16.00;;
36475;SDS011;56615;42.682;23.364;2023-07-31T03:08:13;19.45;;;15.75;;
36475;SDS011;56615;42.682;23.364;2023-07-31T03:10:39;19.02;;;15.57;;
36475;SDS011;56615;42.682;23.364;2023-07-31T03:13:05;19.27;;;15.85;;
36475;SDS011;56615;42.682;23.364;2023-07-31T03:15:43;20.38;;;15.98;;
36475;SDS011;56615;42.682;23.364;2023-07-31T03:18:12;19.10;;;16.50;;
36475;SDS011;56615;42.682;23.364;2023-07-31T03:20:43;17.98;;;15.18;;
36475;SDS011;56615;42.682;23.364;2023-07-31T03:25:36;19.63;;;16.40;;
36475;SDS011;56615;42.682;23.364;2023-07-31T03:28:27;20.30;;;16.33;;
36475;SDS011;56615;42.682;23.364;2023-07-31T03:30:58;19.92;;;16.50;;
36475;SDS011;56615;42.682;23.364;2023-07-31T03:33:36;21.08;;;15.55;;
36475;SDS011;56615;42.682;23.364;2023-07-31T03:36:04;21.42;;;16.60;;
36475;SDS011;56615;42.682;23.364;2023-07-31T03:38:32;21.80;;;16.10;;
36475;SDS011;56615;42.682;23.364;2023-07-31T03:40:59;20.48;;;17.02;;
36475;SDS011;56615;42.682;23.364;2023-07-31T03:43:27;20.92;;;16.60;;
36475;SDS011;56615;42.682;23.364;2023-07-31T03:45:54;22.67;;;17.33;;
36475;SDS011;56615;42.682;23.364;2023-07-31T03:48:19;19.02;;;15.80;;
36475;SDS011;56615;42.682;23.364;2023-07-31T03:50:52;19.33;;;16.02;;
36475;SDS011;56615;42.682;23.364;2023-07-31T03:53:25;21.52;;;16.67;;
36475;SDS011;56615;42.682;23.364;2023-07-31T03:55:52;20.48;;;16.73;;
36475;SDS011;56615;42.682;23.364;2023-07-31T03:58:17;20.70;;;17.65;;
36475;SDS011;56615;42.682;23.364;2023-07-31T04:00:44;21.33;;;16.98;;
36475;SDS011;56615;42.682;23.364;2023-07-31T04:03:10;21.27;;;17.00;;
36475;SDS011;56615;42.682;23.364;2023-07-31T04:05:40;22.15;;;17.60;;
36475;SDS011;56615;42.682;23.364;2023-07-31T04:08:09;21.55;;;17.15;;
36475;SDS011;56615;42.682;23.364;2023-07-31T04:10:36;22.05;;;17.08;;
36475;SDS011;56615;42.682;23.364;2023-07-31T04:13:05;23.15;;;18.65;;
36475;SDS011;56615;42.682;23.364;2023-07-31T04:15:42;21.55;;;17.33;;
36475;SDS011;56615;42.682;23.364;2023-07-31T04:18:12;23.42;;;17.95;;
36475;SDS011;56615;42.682;23.364;2023-07-31T04:20:44;21.48;;;18.17;;
36475;SDS011;56615;42.682;23.364;2023-07-31T04:23:12;24.10;;;18.67;;
36475;SDS011;56615;42.682;23.364;2023-07-31T04:25:38;24.83;;;18.73;;
36475;SDS011;56615;42.682;23.364;2023-07-31T04:28:05;23.27;;;19.48;;
36475;SDS011;56615;42.682;23.364;2023-07-31T04:30:30;23.40;;;18.65;;
36475;SDS011;56615;42.682;23.364;2023-07-31T04:32:59;22.92;;;18.15;;
36475;SDS011;56615;42.682;23.364;2023-07-31T04:35:28;23.33;;;19.08;;
36475;SDS011;56615;42.682;23.364;2023-07-31T04:38:09;24.05;;;18.73;;
36475;SDS011;56615;42.682;23.364;2023-07-31T04:40:34;23.50;;;18.25;;
36475;SDS011;56615;42.682;23.364;2023-07-31T04:43:11;24.42;;;18.17;;
36475;SDS011;56615;42.682;23.364;2023-07-31T04:45:39;23.17;;;19.17;;
36475;SDS011;56615;42.682;23.364;2023-07-31T04:48:13;23.05;;;18.98;;
36475;SDS011;56615;42.682;23.364;2023-07-31T04:50:41;22.00;;;18.42;;
36475;SDS011;56615;42.682;23.364;2023-07-31T04:53:12;21.98;;;17.50;;
36475;SDS011;56615;42.682;23.364;2023-07-31T04:55:40;21.55;;;17.08;;
36475;SDS011;56615;42.682;23.364;2023-07-31T04:58:12;23.38;;;17.80;;
36475;SDS011;56615;42.682;23.364;2023-07-31T05:01:05;22.67;;;16.65;;
36475;SDS011;56615;42.682;23.364;2023-07-31T05:03:35;19.63;;;15.68;;
36475;SDS011;56615;42.682;23.364;2023-07-31T05:06:05;18.25;;;15.45;;
36475;SDS011;56615;42.682;23.364;2023-07-31T05:08:36;19.63;;;15.88;;
36475;SDS011;56615;42.682;23.364;2023-07-31T05:11:19;18.63;;;15.32;;
36475;SDS011;56615;42.682;23.364;2023-07-31T05:13:59;18.20;;;14.20;;
36475;SDS011;56615;42.682;23.364;2023-07-31T05:16:27;16.42;;;14.05;;
36475;SDS011;56615;42.682;23.364;2023-07-31T05:19:03;16.35;;;13.30;;
36475;SDS011;56615;42.682;23.364;2023-07-31T05:21:36;16.27;;;12.85;;
36475;SDS011;56615;42.682;23.364;2023-07-31T05:24:03;17.33;;;12.45;;
36475;SDS011;56615;42.682;23.364;2023-07-31T05:26:32;13.40;;;10.93;;
36475;SDS011;56615;42.682;23.364;2023-07-31T05:31:29;13.65;;;9.93;;
36475;SDS011;56615;42.682;23.364;2023-07-31T05:33:58;15.23;;;10.57;;
36475;SDS011;56615;42.682;23.364;2023-07-31T05:36:34;11.13;;;9.43;;
36475;SDS011;56615;42.682;23.364;2023-07-31T05:39:05;11.98;;;9.48;;
36475;SDS011;56615;42.682;23.364;2023-07-31T05:41:35;10.88;;;9.27;;
36475;SDS011;56615;42.682;23.364;2023-07-31T05:44:11;11.45;;;9.05;;
36475;SDS011;56615;42.682;23.364;2023-07-31T05:46:38;11.18;;;8.80;;
36475;SDS011;56615;42.682;23.364;2023-07-31T05:49:11;10.73;;;8.60;;
36475;SDS011;56615;42.682;23.364;2023-07-31T05:51:38;10.55;;;8.07;;
36475;SDS011;56615;42.682;23.364;2023-07-31T05:54:07;11.02;;;7.47;;
36475;SDS011;56615;42.682;23.364;2023-07-31T05:56:37;9.65;;;7.10;;
36475;SDS011;56615;42.682;23.364;2023-07-31T05:59:03;10.68;;;7.35;;
36475;SDS011;56615;42.682;23.364;2023-07-31T06:01:31;10.43;;;7.35;;
36475;SDS011;56615;42.682;23.364;2023-07-31T06:04:05;10.60;;;7.20;;
36475;SDS011;56615;42.682;23.364;2023-07-31T06:06:31;9.73;;;7.32;;
36475;SDS011;56615;42.682;23.364;2023-07-31T06:09:05;9.30;;;7.15;;
36475;SDS011;56615;42.682;23.364;2023-07-31T06:11:38;11.07;;;7.20;;
36475;SDS011;56615;42.682;23.364;2023-07-31T06:14:15;11.40;;;6.95;;
36475;SDS011;56615;42.682;23.364;2023-07-31T06:16:44;8.23;;;6.20;;
36475;SDS011;56615;42.682;23.364;2023-07-31T06:19:11;9.10;;;5.50;;
36475;SDS011;56615;42.682;23.364;2023-07-31T06:21:40;7.15;;;5.30;;
36475;SDS011;56615;42.682;23.364;2023-07-31T06:24:16;7.90;;;5.15;;
36475;SDS011;56615;42.682;23.364;2023-07-31T06:26:46;8.15;;;4.78;;
36475;SDS011;56615;42.682;23.364;2023-07-31T06:29:19;8.30;;;4.47;;
36475;SDS011;56615;42.682;23.364;2023-07-31T06:31:48;5.35;;;3.70;;
36475;SDS011;56615;42.682;23.364;2023-07-31T06:34:36;5.45;;;3.95;;
36475;SDS011;56615;42.682;23.364;2023-07-31T06:37:15;8.10;;;3.90;;
36475;SDS011;56615;42.682;23.364;2023-07-31T06:39:49;5.47;;;3.78;;
36475;SDS011;56615;42.682;23.364;2023-07-31T06:42:17;5.97;;;3.80;;
36475;SDS011;56615;42.682;23.364;2023-07-31T06:44:52;7.20;;;3.35;;
36475;SDS011;56615;42.682;23.364;2023-07-31T06:47:24;7.05;;;3.42;;
36475;SDS011;56615;42.682;23.364;2023-07-31T06:49:54;4.75;;;3.17;;
36475;SDS011;56615;42.682;23.364;2023-07-31T06:52:38;5.22;;;3.35;;
36475;SDS011;56615;42.682;23.364;2023-07-31T06:55:25;7.88;;;3.58;;
36475;SDS011;56615;42.682;23.364;2023-07-31T07:01:26;5.75;;;3.42;;
36475;SDS011;56615;42.682;23.364;2023-07-31T07:03:54;5.40;;;2.83;;
36475;SDS011;56615;42.682;23.364;2023-07-31T07:06:23;5.47;;;3.05;;
36475;SDS011;56615;42.682;23.364;2023-07-31T07:09:02;6.32;;;3.17;;
36475;SDS011;56615;42.682;23.364;2023-07-31T07:11:39;4.95;;;3.05;;
36475;SDS011;56615;42.682;23.364;2023-07-31T07:14:07;3.63;;;2.35;;
36475;SDS011;56615;42.682;23.364;2023-07-31T07:16:42;4.22;;;2.90;;
36475;SDS011;56615;42.682;23.364;2023-07-31T07:19:40;3.72;;;2.60;;
36475;SDS011;56615;42.682;23.364;2023-07-31T07:22:11;3.92;;;2.80;;
36475;SDS011;56615;42.682;23.364;2023-07-31T07:24:40;3.38;;;2.60;;
36475;SDS011;56615;42.682;23.364;2023-07-31T07:27:10;3.67;;;2.40;;
36475;SDS011;56615;42.682;23.364;2023-07-31T07:29:38;6.10;;;2.50;;
36475;SDS011;56615;42.682;23.364;2023-07-31T07:32:08;6.55;;;2.50;;
36475;SDS011;56615;42.682;23.364;2023-07-31T07:34:51;4.00;;;2.88;;
36475;SDS011;56615;42.682;23.364;2023-07-31T07:37:22;6.15;;;2.70;;
36475;SDS011;56615;42.682;23.364;2023-07-31T07:39:54;5.93;;;2.60;;
36475;SDS011;56615;42.682;23.364;2023-07-31T07:42:24;4.72;;;2.90;;
36475;SDS011;56615;42.682;23.364;2023-07-31T07:44:55;3.80;;;2.30;;
36475;SDS011;56615;42.682;23.364;2023-07-31T07:47:36;5.15;;;2.60;;
36475;SDS011;56615;42.682;23.364;2023-07-31T07:50:08;11.35;;;2.53;;
36475;SDS011;56615;42.682;23.364;2023-07-31T07:52:34;4.90;;;2.70;;
36475;SDS011;56615;42.682;23.364;2023-07-31T07:55:03;6.57;;;2.80;;
36475;SDS011;56615;42.682;23.364;2023-07-31T07:57:42;3.70;;;2.53;;
36475;SDS011;56615;42.682;23.364;2023-07-31T08:00:09;4.15;;;2.45;;
36475;SDS011;56615;42.682;23.364;2023-07-31T08:02:46;5.10;;;2.80;;
36475;SDS011;56615;42.682;23.364;2023-07-31T08:05:16;4.57;;;2.60;;
36475;SDS011;56615;42.682;23.364;2023-07-31T08:07:45;5.38;;;2.40;;
36475;SDS011;56615;42.682;23.364;2023-07-31T08:10:14;3.40;;;2.50;;
36475;SDS011;56615;42.682;23.364;2023-07-31T08:12:40;5.93;;;2.85;;
36475;SDS011;56615;42.682;23.364;2023-07-31T08:15:08;4.40;;;2.78;;
36475;SDS011;56615;42.682;23.364;2023-07-31T08:17:35;4.68;;;2.70;;
36475;SDS011;56615;42.682;23.364;2023-07-31T08:20:04;4.55;;;2.55;;
36475;SDS011;56615;42.682;23.364;2023-07-31T08:22:43;3.72;;;2.60;;
36475;SDS011;56615;42.682;23.364;2023-07-31T08:25:13;6.35;;;2.92;;
36475;SDS011;56615;42.682;23.364;2023-07-31T08:27:43;4.65;;;2.70;;
36475;SDS011;56615;42.682;23.364;2023-07-31T08:30:12;7.50;;;2.85;;
36475;SDS011;56615;42.682;23.364;2023-07-31T08:32:44;4.72;;;2.80;;
36475;SDS011;56615;42.682;23.364;2023-07-31T08:35:21;5.30;;;3.20;;
36475;SDS011;56615;42.682;23.364;2023-07-31T08:37:56;3.97;;;2.70;;
36475;SDS011;56615;42.682;23.364;2023-07-31T08:40:28;4.22;;;2.80;;
36475;SDS011;56615;42.682;23.364;2023-07-31T08:43:00;4.95;;;2.90;;
36475;SDS011;56615;42.682;23.364;2023-07-31T08:45:30;3.88;;;2.70;;
36475;SDS011;56615;42.682;23.364;2023-07-31T08:48:17;3.47;;;2.63;;
36475;SDS011;56615;42.682;23.364;2023-07-31T08:50:47;5.25;;;2.70;;
36475;SDS011;56615;42.682;23.364;2023-07-31T08:53:16;5.88;;;2.90;;
36475;SDS011;56615;42.682;23.364;2023-07-31T08:55:45;4.70;;;2.70;;
36475;SDS011;56615;42.682;23.364;2023-07-31T08:58:17;5.35;;;2.90;;
36475;SDS011;56615;42.682;23.364;2023-07-31T09:00:49;4.28;;;2.80;;
36475;SDS011;56615;42.682;23.364;2023-07-31T09:03:23;3.72;;;2.85;;
36475;SDS011;56615;42.682;23.364;2023-07-31T09:05:57;6.10;;;2.97;;
36475;SDS011;56615;42.682;23.364;2023-07-31T09:08:25;4.50;;;2.85;;
36475;SDS011;56615;42.682;23.364;2023-07-31T09:11:00;4.72;;;2.88;;
36475;SDS011;56615;42.682;23.364;2023-07-31T09:13:32;4.75;;;2.47;;
36475;SDS011;56615;42.682;23.364;2023-07-31T09:15:59;7.28;;;2.78;;
36475;SDS011;56615;42.682;23.364;2023-07-31T09:18:29;5.22;;;2.70;;
36475;SDS011;56615;42.682;23.364;2023-07-31T09:21:14;5.45;;;3.00;;
36475;SDS011;56615;42.682;23.364;2023-07-31T09:23:42;5.88;;;2.83;;
36475;SDS011;56615;42.682;23.364;2023-07-31T09:26:10;8.38;;;3.00;;
36475;SDS011;56615;42.682;23.364;2023-07-31T09:28:48;7.38;;;2.75;;
36475;SDS011;56615;42.682;23.364;2023-07-31T09:31:59;6.75;;;2.90;;
36475;SDS011;56615;42.682;23.364;2023-07-31T09:34:39;5.38;;;3.00;;
36475;SDS011;56615;42.682;23.364;2023-07-31T09:37:13;7.15;;;2.70;;
36475;SDS011;56615;42.682;23.364;2023-07-31T09:39:48;5.05;;;2.80;;
36475;SDS011;56615;42.682;23.364;2023-07-31T09:42:27;4.07;;;2.83;;
36475;SDS011;56615;42.682;23.364;2023-07-31T09:45:10;4.18;;;2.70;;
36475;SDS011;56615;42.682;23.364;2023-07-31T09:47:38;5.22;;;2.70;;
36475;SDS011;56615;42.682;23.364;2023-07-31T09:50:16;4.22;;;2.70;;
36475;SDS011;56615;42.682;23.364;2023-07-31T09:52:42;5.50;;;3.03;;
36475;SDS011;56615;42.682;23.364;2023-07-31T09:55:20;4.20;;;2.90;;
36475;SDS011;56615;42.682;23.364;2023-07-31T10:00:18;3.97;;;2.72;;
36475;SDS011;56615;42.682;23.364;2023-07-31T10:02:53;3.97;;;2.50;;
36475;SDS011;56615;42.682;23.364;2023-07-31T10:05:20;3.88;;;2.33;;
36475;SDS011;56615;42.682;23.364;2023-07-31T10:07:54;2.88;;;2.13;;
36475;SDS011;56615;42.682;23.364;2023-07-31T10:10:44;3.25;;;2.30;;
36475;SDS011;56615;42.682;23.364;2023-07-31T10:13:23;4.10;;;2.05;;
36475;SDS011;56615;42.682;23.364;2023-07-31T10:16:05;3.25;;;2.38;;
36475;SDS011;56615;42.682;23.364;2023-07-31T10:18:33;3.17;;;2.20;;
36475;SDS011;56615;42.682;23.364;2023-07-31T10:21:09;4.18;;;2.55;;
36475;SDS011;56615;42.682;23.364;2023-07-31T10:23:35;7.07;;;2.10;;
36475;SDS011;56615;42.682;23.364;2023-07-31T10:26:08;3.03;;;2.17;;
36475;SDS011;56615;42.682;23.364;2023-07-31T10:32:06;4.22;;;2.08;;
36475;SDS011;56615;42.682;23.364;2023-07-31T10:34:39;5.35;;;2.20;;
36475;SDS011;56615;42.682;23.364;2023-07-31T10:39:56;3.65;;;2.33;;
36475;SDS011;56615;42.682;23.364;2023-07-31T10:42:27;3.65;;;2.00;;
36475;SDS011;56615;42.682;23.364;2023-07-31T10:45:01;4.25;;;2.22;;
36475;SDS011;56615;42.682;23.364;2023-07-31T10:48:02;5.40;;;2.23;;
36475;SDS011;56615;42.682;23.364;2023-07-31T10:50:54;3.35;;;1.77;;
36475;SDS011;56615;42.682;23.364;2023-07-31T10:53:36;3.17;;;2.05;;
36475;SDS011;56615;42.682;23.364;2023-07-31T10:56:05;4.03;;;1.80;;
36475;SDS011;56615;42.682;23.364;2023-07-31T10:58:33;3.17;;;2.08;;
36475;SDS011;56615;42.682;23.364;2023-07-31T11:01:04;3.45;;;1.98;;
36475;SDS011;56615;42.682;23.364;2023-07-31T11:03:50;2.47;;;1.88;;
36475;SDS011;56615;42.682;23.364;2023-07-31T11:06:33;2.65;;;1.80;;
36475;SDS011;56615;42.682;23.364;2023-07-31T11:09:24;3.90;;;2.30;;
36475;SDS011;56615;42.682;23.364;2023-07-31T11:12:12;4.03;;;2.00;;
36475;SDS011;56615;42.682;23.364;2023-07-31T11:14:44;3.00;;;2.13;;
36475;SDS011;56615;42.682;23.364;2023-07-31T11:17:27;5.82;;;2.00;;
36475;SDS011;56615;42.682;23.364;2023-07-31T11:19:58;6.28;;;2.92;;
36475;SDS011;56615;42.682;23.364;2023-07-31T11:22:39;4.97;;;2.30;;
36475;SDS011;56615;42.682;23.364;2023-07-31T11:25:30;3.20;;;1.90;;
36475;SDS011;56615;42.682;23.364;2023-07-31T11:28:19;3.00;;;2.10;;
36475;SDS011;56615;42.682;23.364;2023-07-31T11:30:50;3.85;;;2.00;;
36475;SDS011;56615;42.682;23.364;2023-07-31T11:33:25;3.72;;;2.00;;
36475;SDS011;56615;42.682;23.364;2023-07-31T11:35:54;5.75;;;2.08;;
36475;SDS011;56615;42.682;23.364;2023-07-31T11:38:32;4.25;;;1.92;;
36475;SDS011;56615;42.682;23.364;2023-07-31T11:41:09;3.83;;;1.83;;
36475;SDS011;56615;42.682;23.364;2023-07-31T11:43:36;4.05;;;2.05;;
36475;SDS011;56615;42.682;23.364;2023-07-31T11:46:05;2.55;;;1.85;;
36475;SDS011;56615;42.682;23.364;2023-07-31T11:48:55;4.95;;;2.53;;
36475;SDS011;56615;42.682;23.364;2023-07-31T11:51:29;4.80;;;2.45;;
36475;SDS011;56615;42.682;23.364;2023-07-31T11:53:59;4.63;;;2.30;;
36475;SDS011;56615;42.682;23.364;2023-07-31T11:56:34;4.97;;;2.60;;
36475;SDS011;56615;42.682;23.364;2023-07-31T11:59:24;7.65;;;2.50;;
36475;SDS011;56615;42.682;23.364;2023-07-31T12:01:53;4.80;;;2.17;;
36475;SDS011;56615;42.682;23.364;2023-07-31T12:04:19;4.88;;;2.58;;
36475;SDS011;56615;42.682;23.364;2023-07-31T12:06:52;4.03;;;2.35;;
36475;SDS011;56615;42.682;23.364;2023-07-31T12:09:29;5.90;;;2.90;;
36475;SDS011;56615;42.682;23.364;2023-07-31T12:12:08;3.42;;;2.40;;
36475;SDS011;56615;42.682;23.364;2023-07-31T12:14:35;5.65;;;2.70;;
36475;SDS011;56615;42.682;23.364;2023-07-31T12:17:08;5.20;;;3.00;;
36475;SDS011;56615;42.682;23.364;2023-07-31T12:19:54;5.65;;;3.20;;
36475;SDS011;56615;42.682;23.364;2023-07-31T12:22:24;3.97;;;2.70;;
36475;SDS011;56615;42.682;23.364;2023-07-31T12:24:52;4.95;;;3.22;;
36475;SDS011;56615;42.682;23.364;2023-07-31T12:27:24;6.40;;;3.45;;
36475;SDS011;56615;42.682;23.364;2023-07-31T12:33:50;5.53;;;3.40;;
36475;SDS011;56615;42.682;23.364;2023-07-31T12:36:23;10.80;;;4.15;;
36475;SDS011;56615;42.682;23.364;2023-07-31T12:38:54;6.78;;;4.18;;
36475;SDS011;56615;42.682;23.364;2023-07-31T12:41:23;6.78;;;4.13;;
36475;SDS011;56615;42.682;23.364;2023-07-31T12:43:55;9.85;;;4.40;;
36475;SDS011;56615;42.682;23.364;2023-07-31T12:46:29;6.50;;;4.22;;
36475;SDS011;56615;42.682;23.364;2023-07-31T12:48:59;5.55;;;4.15;;
36475;SDS011;56615;42.682;23.364;2023-07-31T12:51:34;5.78;;;3.95;;
36475;SDS011;56615;42.682;23.364;2023-07-31T12:54:17;5.15;;;4.00;;
36475;SDS011;56615;42.682;23.364;2023-07-31T12:56:48;5.65;;;4.15;;
36475;SDS011;56615;42.682;23.364;2023-07-31T12:59:24;6.35;;;4.35;;
36475;SDS011;56615;42.682;23.364;2023-07-31T13:02:00;7.78;;;4.60;;
36475;SDS011;56615;42.682;23.364;2023-07-31T13:04:34;7.30;;;4.80;;
36475;SDS011;56615;42.682;23.364;2023-07-31T13:09:32;7.00;;;4.68;;
36475;SDS011;56615;42.682;23.364;2023-07-31T13:12:00;8.23;;;5.15;;
36475;SDS011;56615;42.682;23.364;2023-07-31T13:14:39;7.45;;;5.28;;
36475;SDS011;56615;42.682;23.364;2023-07-31T13:17:12;8.20;;;5.13;;
36475;SDS011;56615;42.682;23.364;2023-07-31T13:19:46;7.25;;;5.13;;
36475;SDS011;56615;42.682;23.364;2023-07-31T13:22:27;7.30;;;4.65;;
36475;SDS011;56615;42.682;23.364;2023-07-31T13:24:56;5.93;;;4.47;;
36475;SDS011;56615;42.682;23.364;2023-07-31T13:27:24;7.03;;;4.85;;
36475;SDS011;56615;42.682;23.364;2023-07-31T13:30:06;7.53;;;4.57;;
36475;SDS011;56615;42.682;23.364;2023-07-31T13:32:35;6.72;;;4.50;;
36475;SDS011;56615;42.682;23.364;2023-07-31T13:35:08;7.60;;;4.38;;
36475;SDS011;56615;42.682;23.364;2023-07-31T13:37:54;9.23;;;4.17;;
36475;SDS011;56615;42.682;23.364;2023-07-31T13:40:26;7.40;;;4.07;;
36475;SDS011;56615;42.682;23.364;2023-07-31T13:43:00;7.60;;;4.35;;
36475;SDS011;56615;42.682;23.364;2023-07-31T13:45:36;6.32;;;4.35;;
36475;SDS011;56615;42.682;23.364;2023-07-31T13:48:11;10.05;;;4.40;;
36475;SDS011;56615;42.682;23.364;2023-07-31T13:50:52;8.18;;;4.28;;
36475;SDS011;56615;42.682;23.364;2023-07-31T13:53:20;8.10;;;4.03;;
36475;SDS011;56615;42.682;23.364;2023-07-31T13:56:02;5.75;;;3.83;;
36475;SDS011;56615;42.682;23.364;2023-07-31T13:58:38;6.63;;;4.30;;
36475;SDS011;56615;42.682;23.364;2023-07-31T14:01:05;6.03;;;3.88;;
36475;SDS011;56615;42.682;23.364;2023-07-31T14:03:34;6.43;;;3.50;;
36475;SDS011;56615;42.682;23.364;2023-07-31T14:06:23;4.82;;;3.58;;
36475;SDS011;56615;42.682;23.364;2023-07-31T14:08:54;7.00;;;3.88;;
36475;SDS011;56615;42.682;23.364;2023-07-31T14:14:22;8.10;;;3.80;;
36475;SDS011;56615;42.682;23.364;2023-07-31T14:16:49;6.93;;;3.63;;
36475;SDS011;56615;42.682;23.364;2023-07-31T14:19:17;7.18;;;3.88;;
36475;SDS011;56615;42.682;23.364;2023-07-31T14:21:45;8.60;;;3.97;;
36475;SDS011;56615;42.682;23.364;2023-07-31T14:24:21;5.53;;;3.90;;
36475;SDS011;56615;42.682;23.364;2023-07-31T14:26:50;5.88;;;4.20;;
36475;SDS011;56615;42.682;23.364;2023-07-31T14:29:19;8.98;;;3.95;;
36475;SDS011;56615;42.682;23.364;2023-07-31T14:31:46;6.60;;;3.80;;
36475;SDS011;56615;42.682;23.364;2023-07-31T14:34:13;6.07;;;3.90;;
36475;SDS011;56615;42.682;23.364;2023-07-31T14:36:50;4.63;;;3.55;;
36475;SDS011;56615;42.682;23.364;2023-07-31T14:39:36;5.30;;;3.40;;
36475;SDS011;56615;42.682;23.364;2023-07-31T14:42:06;4.85;;;3.42;;
36475;SDS011;56615;42.682;23.364;2023-07-31T14:45:19;6.75;;;3.38;;
36475;SDS011;56615;42.682;23.364;2023-07-31T14:47:49;6.22;;;3.17;;
36475;SDS011;56615;42.682;23.364;2023-07-31T14:50:19;5.28;;;3.47;;
36475;SDS011;56615;42.682;23.364;2023-07-31T14:53:03;4.22;;;3.47;;
36475;SDS011;56615;42.682;23.364;2023-07-31T14:55:49;6.75;;;3.22;;
36475;SDS011;56615;42.682;23.364;2023-07-31T14:58:23;4.95;;;3.58;;
36475;SDS011;56615;42.682;23.364;2023-07-31T15:01:07;5.60;;;3.65;;
36475;SDS011;56615;42.682;23.364;2023-07-31T15:03:41;5.47;;;3.50;;
36475;SDS011;56615;42.682;23.364;2023-07-31T15:06:26;6.95;;;3.30;;
36475;SDS011;56615;42.682;23.364;2023-07-31T15:09:01;5.93;;;3.42;;
36475;SDS011;56615;42.682;23.364;2023-07-31T15:11:27;8.20;;;3.63;;
36475;SDS011;56615;42.682;23.364;2023-07-31T15:16:25;5.78;;;3.50;;
36475;SDS011;56615;42.682;23.364;2023-07-31T15:19:06;4.00;;;2.60;;
36475;SDS011;56615;42.682;23.364;2023-07-31T15:21:37;4.77;;;3.10;;
36475;SDS011;56615;42.682;23.364;2023-07-31T15:24:07;6.82;;;3.28;;
36475;SDS011;56615;42.682;23.364;2023-07-31T15:26:37;4.47;;;2.70;;
36475;SDS011;56615;42.682;23.364;2023-07-31T15:29:37;4.80;;;3.00;;
36475;SDS011;56615;42.682;23.364;2023-07-31T15:32:04;3.95;;;2.90;;
36475;SDS011;56615;42.682;23.364;2023-07-31T15:34:36;5.07;;;2.63;;
36475;SDS011;56615;42.682;23.364;2023-07-31T15:37:11;6.38;;;2.88;;
36475;SDS011;56615;42.682;23.364;2023-07-31T15:39:38;6.40;;;2.60;;
36475;SDS011;56615;42.682;23.364;2023-07-31T15:42:05;3.78;;;2.40;;
36475;SDS011;56615;42.682;23.364;2023-07-31T15:44:31;4.07;;;2.50;;